Time;durP1;ratioP1;P1;durP2;ratioP2;P2;SDS_P1;SDS_P2;PMS_P1;PMS_P2;Temp;Humidity;BMP_temperature;BMP_pressure;BME280_temperature;BME280_humidity;BME280_pressure;Samples;Min_cycle;Max_cycle;Signal;HPM_P1;HPM_P2
2024/01/18 05:05:13;;;;;;;0.40;0.40;;;6.80;99.90;;;;;;6079888;23;20260;-66
2024/01/18 05:07:42;;;;;;;0.30;0.30;;;6.80;99.90;;;;;;4976005;28;20216;-62
2024/01/18 05:10:11;;;;;;;0.30;0.30;;;6.80;99.90;;;;;;4976901;28;20218;-65
2024/01/18 05:12:37;;;;;;;0.70;0.70;;;6.80;99.90;;;;;;4977166;28;20676;-68
2024/01/18 05:15:04;;;;;;;0.30;0.30;;;6.90;99.90;;;;;;4976454;28;20213;-65
2024/01/18 05:17:35;;;;;;;0.30;0.30;;;6.90;99.90;;;;;;4977128;28;20183;-67
2024/01/18 05:20:10;;;;;;;0.30;0.30;;;6.90;99.90;;;;;;4977252;28;20169;-67
2024/01/18 05:22:35;;;;;;;0.30;0.30;;;6.90;99.90;;;;;;4975778;28;20602;-67
2024/01/18 05:25:02;;;;;;;0.30;0.30;;;6.80;99.90;;;;;;4976711;28;20203;-66
2024/01/18 05:27:29;;;;;;;0.30;0.30;;;6.90;99.90;;;;;;4976586;28;20507;-67
2024/01/18 05:29:55;;;;;;;0.30;0.30;;;6.90;99.90;;;;;;4976499;28;20210;-70
2024/01/18 05:32:21;;;;;;;0.30;0.30;;;6.80;99.90;;;;;;4976588;28;20172;-66
2024/01/18 05:34:48;;;;;;;0.30;0.30;;;6.80;99.90;;;;;;4975525;28;20419;-66
2024/01/18 05:37:14;;;;;;;0.30;0.30;;;6.70;99.90;;;;;;4976026;28;20646;-67
2024/01/18 05:39:39;;;;;;;0.30;0.30;;;6.70;99.90;;;;;;4976406;28;20195;-65
2024/01/18 05:42:05;;;;;;;0.30;0.30;;;6.70;99.90;;;;;;4976572;28;20259;-67
2024/01/18 05:44:31;;;;;;;0.30;0.30;;;6.60;99.90;;;;;;4976290;28;20250;-66
2024/01/18 05:46:56;;;;;;;0.30;0.30;;;6.50;99.90;;;;;;4976227;28;20282;-66
2024/01/18 05:49:22;;;;;;;0.30;0.30;;;6.50;99.90;;;;;;4976428;28;20261;-65
2024/01/18 05:51:47;;;;;;;0.30;0.30;;;6.50;99.90;;;;;;4976540;28;20180;-65
2024/01/18 05:54:13;;;;;;;0.30;0.30;;;6.40;99.90;;;;;;4976040;28;20237;-65
2024/01/18 05:56:39;;;;;;;0.30;0.30;;;6.40;99.90;;;;;;4976397;28;20222;-68
2024/01/18 05:59:04;;;;;;;0.40;0.40;;;6.40;99.90;;;;;;4976311;28;20184;-64
2024/01/18 06:01:31;;;;;;;0.30;0.30;;;6.30;99.90;;;;;;4976192;28;20176;-65
2024/01/18 06:03:57;;;;;;;0.30;0.30;;;6.20;99.90;;;;;;4976776;28;20175;-67
2024/01/18 06:06:23;;;;;;;0.30;0.30;;;6.10;99.90;;;;;;4975983;28;20204;-66
2024/01/18 06:08:48;;;;;;;0.30;0.30;;;6.00;99.90;;;;;;4973925;28;20176;-67
2024/01/18 06:11:14;;;;;;;0.63;0.63;;;5.90;99.90;;;;;;4976496;28;20260;-66
2024/01/18 06:13:40;;;;;;;0.70;0.70;;;5.70;99.90;;;;;;4977248;28;20723;-65
2024/01/18 06:16:11;;;;;;;0.30;0.30;;;5.60;99.90;;;;;;4977881;28;20191;-63
2024/01/18 06:18:37;;;;;;;0.30;0.30;;;5.50;99.90;;;;;;4979420;28;20427;-68
2024/01/18 06:21:12;;;;;;;0.32;0.32;;;5.40;99.90;;;;;;4964971;28;20180;-70
2024/01/18 06:23:38;;;;;;;0.30;0.30;;;5.20;99.90;;;;;;4978831;28;20519;-66
2024/01/18 06:26:08;;;;;;;0.30;0.30;;;5.10;99.90;;;;;;4977417;28;20207;-66
2024/01/18 06:28:34;;;;;;;0.30;0.30;;;4.90;99.90;;;;;;4976804;28;20175;-67
2024/01/18 06:31:00;;;;;;;0.30;0.30;;;4.90;99.90;;;;;;4976276;28;20204;-65
2024/01/18 06:33:28;;;;;;;0.30;0.30;;;4.80;99.90;;;;;;4976655;28;20227;-67
2024/01/18 06:35:54;;;;;;;0.30;0.30;;;4.70;99.90;;;;;;4976081;28;20321;-66
2024/01/18 06:38:20;;;;;;;0.30;0.30;;;4.60;99.90;;;;;;4976373;28;20673;-64
2024/01/18 06:40:47;;;;;;;0.30;0.30;;;4.50;99.90;;;;;;4976464;28;20229;-66
2024/01/18 06:43:16;;;;;;;0.40;0.40;;;4.40;99.90;;;;;;4976545;28;20176;-64
2024/01/18 06:45:42;;;;;;;0.30;0.30;;;4.40;99.90;;;;;;4975649;28;20204;-63
2024/01/18 06:48:08;;;;;;;0.30;0.30;;;4.40;99.90;;;;;;4975919;28;20256;-65
2024/01/18 06:50:35;;;;;;;0.30;0.30;;;4.30;99.90;;;;;;4975239;28;20202;-67
2024/01/18 06:53:02;;;;;;;0.30;0.30;;;4.30;99.90;;;;;;4975077;28;20176;-63
2024/01/18 06:55:28;;;;;;;0.30;0.30;;;4.30;99.90;;;;;;4974178;28;20281;-64
2024/01/18 06:57:54;;;;;;;0.30;0.30;;;4.20;99.90;;;;;;4974663;28;20588;-64
2024/01/18 07:00:23;;;;;;;0.30;0.30;;;4.30;99.90;;;;;;4973836;28;20180;-65
2024/01/18 07:02:50;;;;;;;0.40;0.40;;;4.30;99.90;;;;;;4975206;28;20408;-63
2024/01/18 07:05:19;;;;;;;0.30;0.30;;;4.30;99.90;;;;;;4959855;28;20571;-62
2024/01/18 07:07:44;;;;;;;0.40;0.40;;;4.20;99.90;;;;;;4974751;28;20574;-65
2024/01/18 07:10:10;;;;;;;0.30;0.30;;;4.20;99.90;;;;;;4973662;28;20202;-67
2024/01/18 07:12:36;;;;;;;0.30;0.30;;;4.20;99.90;;;;;;4974125;28;20182;-68
2024/01/18 07:15:03;;;;;;;0.30;0.30;;;4.20;99.90;;;;;;4973059;28;20445;-66
2024/01/18 07:17:29;;;;;;;0.30;0.30;;;4.20;99.90;;;;;;4974924;28;20737;-67
2024/01/18 07:19:59;;;;;;;0.30;0.30;;;4.20;99.90;;;;;;4973786;28;20216;-68
2024/01/18 07:22:25;;;;;;;0.40;0.40;;;4.20;99.90;;;;;;4974404;28;20190;-68
2024/01/18 07:24:52;;;;;;;0.30;0.30;;;4.20;99.90;;;;;;4973601;28;20549;-68
2024/01/18 07:27:17;;;;;;;0.32;0.32;;;4.20;99.90;;;;;;4974199;28;20199;-70
2024/01/18 07:29:43;;;;;;;0.40;0.40;;;4.10;99.90;;;;;;4972503;28;20213;-67
2024/01/18 07:32:09;;;;;;;0.30;0.30;;;4.10;99.90;;;;;;4961451;28;20632;-67
2024/01/18 07:34:35;;;;;;;0.30;0.30;;;4.10;99.90;;;;;;4972589;28;20826;-67
2024/01/18 07:37:01;;;;;;;0.40;0.40;;;4.10;99.90;;;;;;4973830;28;20217;-68
2024/01/18 07:39:30;;;;;;;0.70;0.70;;;4.00;99.90;;;;;;4973761;28;20511;-68
2024/01/18 07:41:56;;;;;;;0.30;0.30;;;4.10;99.90;;;;;;4973139;28;20232;-67
2024/01/18 07:44:21;;;;;;;0.30;0.30;;;4.00;99.90;;;;;;4972469;28;20182;-65
2024/01/18 07:46:47;;;;;;;0.30;0.30;;;4.00;99.90;;;;;;4974127;28;20287;-69
2024/01/18 07:49:13;;;;;;;0.30;0.30;;;4.00;99.90;;;;;;4973971;28;20184;-69
2024/01/18 07:51:38;;;;;;;0.33;0.33;;;4.00;99.90;;;;;;4973950;28;20557;-67
2024/01/18 07:54:04;;;;;;;0.30;0.30;;;4.00;99.90;;;;;;4973434;28;20187;-67
2024/01/18 07:56:30;;;;;;;0.40;0.40;;;4.00;99.90;;;;;;4973453;28;20201;-65
2024/01/18 07:58:56;;;;;;;0.37;0.37;;;4.00;99.90;;;;;;4974107;28;20227;-70
2024/01/18 08:01:22;;;;;;;0.30;0.30;;;4.00;99.90;;;;;;4973679;28;20428;-66
2024/01/18 08:03:48;;;;;;;0.40;0.40;;;4.00;99.90;;;;;;4972996;28;20447;-68
2024/01/18 08:06:13;;;;;;;0.38;0.38;;;4.00;99.90;;;;;;4973529;28;20219;-70
2024/01/18 08:08:40;;;;;;;0.30;0.30;;;4.00;99.90;;;;;;4975938;28;20174;-72
2024/01/18 08:11:15;;;;;;;0.30;0.30;;;4.00;99.90;;;;;;4977600;28;20279;-68
2024/01/18 08:13:41;;;;;;;0.30;0.30;;;4.00;99.90;;;;;;4981188;28;20171;-71
2024/01/18 08:16:10;;;;;;;0.30;0.30;;;4.00;99.90;;;;;;4969944;28;20721;-71
2024/01/18 08:18:36;;;;;;;0.30;0.30;;;4.00;99.90;;;;;;4976485;28;20201;-71
2024/01/18 08:21:02;;;;;;;0.60;0.60;;;4.00;99.90;;;;;;4977495;28;20189;-70
2024/01/18 08:23:28;;;;;;;0.35;0.35;;;4.00;99.90;;;;;;4976444;28;20172;-70
2024/01/18 08:25:54;;;;;;;0.30;0.30;;;4.00;99.90;;;;;;4977202;28;20198;-71
2024/01/18 08:28:21;;;;;;;0.35;0.35;;;4.00;99.90;;;;;;4986830;28;20177;-67
2024/01/18 08:30:47;;;;;;;0.30;0.30;;;4.00;99.90;;;;;;4990964;28;20243;-70
2024/01/18 08:33:13;;;;;;;0.40;0.40;;;4.00;99.90;;;;;;4977775;28;20205;-70
2024/01/18 08:35:38;;;;;;;0.45;0.45;;;4.00;99.90;;;;;;4975054;28;20440;-70
2024/01/18 08:38:04;;;;;;;0.40;0.40;;;3.90;99.90;;;;;;4977157;28;20181;-68
2024/01/18 08:40:30;;;;;;;0.30;0.30;;;3.90;99.90;;;;;;4977459;28;20189;-68
2024/01/18 08:42:56;;;;;;;0.50;0.50;;;3.80;99.90;;;;;;4979562;28;20434;-68
2024/01/18 08:45:23;;;;;;;0.30;0.30;;;3.80;99.90;;;;;;4976463;28;20444;-69
2024/01/18 08:47:49;;;;;;;0.40;0.40;;;3.80;99.90;;;;;;4977418;28;20408;-68
2024/01/18 08:50:17;;;;;;;0.30;0.30;;;3.80;99.90;;;;;;4975820;28;20231;-67
2024/01/18 08:52:43;;;;;;;0.30;0.30;;;3.70;99.90;;;;;;4977144;28;20571;-69
2024/01/18 08:55:08;;;;;;;0.30;0.30;;;3.70;99.90;;;;;;4975579;28;20669;-64
2024/01/18 08:57:35;;;;;;;0.40;0.40;;;3.70;99.90;;;;;;4982326;28;20801;-66
2024/01/18 09:00:00;;;;;;;0.30;0.30;;;3.60;99.90;;;;;;4976897;28;20189;-66
2024/01/18 09:02:26;;;;;;;0.70;0.70;;;3.60;99.90;;;;;;4976937;28;20183;-68
2024/01/18 09:04:52;;;;;;;0.30;0.30;;;3.60;99.90;;;;;;4984000;28;20661;-67
2024/01/18 09:07:18;;;;;;;0.30;0.30;;;3.60;99.90;;;;;;4995537;28;20513;-69
2024/01/18 09:09:44;;;;;;;0.40;0.40;;;3.60;99.90;;;;;;4986874;28;20455;-65
2024/01/18 09:12:11;;;;;;;0.40;0.40;;;3.50;99.90;;;;;;4995794;28;20214;-68
2024/01/18 09:14:36;;;;;;;0.30;0.30;;;3.50;99.90;;;;;;4976151;28;20196;-68
2024/01/18 09:17:02;;;;;;;0.30;0.30;;;3.50;99.90;;;;;;4976506;28;20196;-69
2024/01/18 09:19:30;;;;;;;0.30;0.30;;;3.50;99.90;;;;;;4976237;28;20261;-67
2024/01/18 09:21:56;;;;;;;0.30;0.30;;;3.50;99.90;;;;;;4986001;28;20264;-67
2024/01/18 09:24:22;;;;;;;0.40;0.40;;;3.50;99.90;;;;;;4978399;28;20713;-69
2024/01/18 09:26:48;;;;;;;0.30;0.30;;;3.40;99.90;;;;;;4976562;28;20200;-65
2024/01/18 09:29:14;;;;;;;0.40;0.40;;;3.40;99.90;;;;;;4976380;28;20457;-69
2024/01/18 09:31:39;;;;;;;0.30;0.30;;;3.40;99.90;;;;;;4976263;28;20575;-64
2024/01/18 09:34:05;;;;;;;0.40;0.40;;;3.30;99.90;;;;;;4976616;28;20178;-67
2024/01/18 09:36:30;;;;;;;0.40;0.40;;;3.30;99.90;;;;;;4976182;28;20220;-65
2024/01/18 09:38:56;;;;;;;0.40;0.40;;;3.30;99.90;;;;;;4976104;28;20592;-68
2024/01/18 09:41:22;;;;;;;0.30;0.30;;;3.30;99.90;;;;;;4974888;28;20181;-66
2024/01/18 09:43:54;;;;;;;0.37;0.37;;;3.30;99.90;;;;;;4974544;28;20191;-69
2024/01/18 09:46:22;;;;;;;0.40;0.40;;;3.30;99.90;;;;;;4974107;28;20292;-67
2024/01/18 09:48:48;;;;;;;0.40;0.40;;;3.30;99.90;;;;;;4974885;28;20190;-68
2024/01/18 09:51:15;;;;;;;0.40;0.40;;;3.30;99.90;;;;;;4975805;28;20197;-67
2024/01/18 09:53:47;;;;;;;0.30;0.30;;;3.30;99.90;;;;;;4974841;28;20938;-69
2024/01/18 09:56:27;;;;;;;0.30;0.30;;;3.20;99.90;;;;;;4975705;28;20205;-65
2024/01/18 09:58:53;;;;;;;0.30;0.30;;;3.20;99.90;;;;;;4974980;28;20176;-71
2024/01/18 10:01:26;;;;;;;0.40;0.40;;;3.20;99.90;;;;;;4975965;28;20181;-66
2024/01/18 10:03:51;;;;;;;0.30;0.30;;;3.10;99.90;;;;;;4976194;28;20443;-67
2024/01/18 10:06:18;;;;;;;0.30;0.30;;;3.10;99.90;;;;;;4984808;28;20247;-69
2024/01/18 10:08:45;;;;;;;0.30;0.30;;;3.10;99.90;;;;;;4985046;28;20400;-68
2024/01/18 10:11:11;;;;;;;0.40;0.40;;;3.10;99.90;;;;;;4974888;28;20292;-70
2024/01/18 10:13:56;;;;;;;0.30;0.30;;;3.10;99.90;;;;;;4975189;28;20343;-64
2024/01/18 10:16:28;;;;;;;0.40;0.40;;;3.10;99.90;;;;;;4975326;28;20224;-65
2024/01/18 10:18:55;;;;;;;0.30;0.30;;;3.10;99.90;;;;;;4975638;28;20179;-69
2024/01/18 10:21:23;;;;;;;0.47;0.47;;;3.10;99.90;;;;;;4959151;28;20178;-67
2024/01/18 10:23:49;;;;;;;0.35;0.35;;;3.10;99.90;;;;;;4974664;28;20183;-71
2024/01/18 10:26:16;;;;;;;0.30;0.30;;;3.00;99.90;;;;;;4975347;28;20566;-67
2024/01/18 10:28:41;;;;;;;0.40;0.40;;;2.90;99.90;;;;;;4975552;28;20172;-71
2024/01/18 10:31:08;;;;;;;0.30;0.30;;;2.90;99.90;;;;;;4975258;28;20204;-66
2024/01/18 10:33:33;;;;;;;0.40;0.40;;;2.80;99.90;;;;;;4975364;28;20199;-69
2024/01/18 10:36:00;;;;;;;0.40;0.40;;;2.80;99.90;;;;;;4974645;28;20196;-70
2024/01/18 10:38:35;;;;;;;0.30;0.30;;;2.70;99.90;;;;;;4974919;28;20168;-67
2024/01/18 10:41:02;;;;;;;0.30;0.30;;;2.70;99.90;;;;;;4975539;28;20190;-67
2024/01/18 10:43:32;;;;;;;0.30;0.30;;;2.70;99.90;;;;;;4974996;28;20176;-68
2024/01/18 10:45:59;;;;;;;0.30;0.30;;;2.60;99.90;;;;;;4972982;28;20196;-69
2024/01/18 10:48:29;;;;;;;0.30;0.30;;;2.60;99.90;;;;;;4975965;28;20191;-69
2024/01/18 10:50:55;;;;;;;0.30;0.30;;;2.50;99.90;;;;;;4994549;28;20673;-69
2024/01/18 10:53:24;;;;;;;0.40;0.40;;;2.50;99.90;;;;;;4994549;28;20164;-68
2024/01/18 10:55:53;;;;;;;0.40;0.40;;;2.50;99.90;;;;;;4994235;28;20183;-70
2024/01/18 10:58:19;;;;;;;0.30;0.30;;;2.50;99.90;;;;;;4994634;28;20302;-68
2024/01/18 11:00:46;;;;;;;0.40;0.40;;;2.60;99.90;;;;;;4988413;28;20188;-69
2024/01/18 11:03:15;;;;;;;1.08;1.08;;;2.60;99.90;;;;;;4974985;28;20239;-68
2024/01/18 11:05:45;;;;;;;0.35;0.35;;;2.60;99.90;;;;;;4974199;28;20229;-70
2024/01/18 11:08:14;;;;;;;0.40;0.40;;;2.60;99.90;;;;;;4975449;28;20184;-70
2024/01/18 11:10:42;;;;;;;0.30;0.30;;;2.60;99.90;;;;;;4973785;28;20789;-67
2024/01/18 11:13:09;;;;;;;0.30;0.30;;;2.60;99.90;;;;;;4975130;28;20187;-67
2024/01/18 11:15:36;;;;;;;0.40;0.40;;;2.60;99.90;;;;;;4972789;28;20262;-69
2024/01/18 11:18:09;;;;;;;0.40;0.40;;;2.60;99.90;;;;;;4973558;28;20171;-67
2024/01/18 11:20:55;;;;;;;0.40;0.40;;;2.60;99.90;;;;;;4974283;28;20267;-68
2024/01/18 11:23:28;;;;;;;0.40;0.40;;;2.50;99.90;;;;;;4957093;28;20202;-68
2024/01/18 11:25:54;;;;;;;0.40;0.40;;;2.50;99.90;;;;;;4960656;28;20199;-70
2024/01/18 11:28:24;;;;;;;0.30;0.30;;;2.50;99.90;;;;;;4974371;28;20180;-69
2024/01/18 11:30:50;;;;;;;0.30;0.30;;;2.50;99.90;;;;;;4974705;28;20451;-69
2024/01/18 11:33:15;;;;;;;0.37;0.37;;;2.50;99.90;;;;;;4978336;28;20652;-66
2024/01/18 11:35:41;;;;;;;0.33;0.33;;;2.40;99.90;;;;;;4993386;28;20431;-68
2024/01/18 11:38:18;;;;;;;0.40;0.40;;;2.40;99.90;;;;;;4994025;28;20199;-70
2024/01/18 11:40:44;;;;;;;0.30;0.30;;;2.30;99.90;;;;;;4976247;28;20184;-66
2024/01/18 11:43:10;;;;;;;0.30;0.30;;;2.30;99.90;;;;;;4979154;28;20215;-66
2024/01/18 11:45:36;;;;;;;0.40;0.40;;;2.20;99.90;;;;;;4980380;28;20204;-66
2024/01/18 11:48:01;;;;;;;0.40;0.40;;;2.20;99.90;;;;;;4980613;28;20318;-65
2024/01/18 11:50:27;;;;;;;0.33;0.33;;;2.20;99.90;;;;;;4988828;28;20199;-66
2024/01/18 11:52:53;;;;;;;0.40;0.40;;;2.10;99.90;;;;;;4981552;28;20658;-69
2024/01/18 11:55:20;;;;;;;0.40;0.40;;;2.10;99.90;;;;;;4979997;28;20546;-67
2024/01/18 11:57:46;;;;;;;0.40;0.40;;;2.00;99.90;;;;;;4979887;28;20183;-68
2024/01/18 12:00:13;;;;;;;0.40;0.40;;;2.10;99.90;;;;;;4980369;28;20172;-66
2024/01/18 12:02:42;;;;;;;0.30;0.30;;;2.00;99.90;;;;;;4980600;28;20183;-66
2024/01/18 12:05:08;;;;;;;0.40;0.40;;;2.00;99.90;;;;;;4980206;28;20630;-67
2024/01/18 12:07:34;;;;;;;0.40;0.40;;;2.00;99.90;;;;;;4979865;28;20271;-68
2024/01/18 12:10:04;;;;;;;0.30;0.30;;;2.00;99.90;;;;;;4980197;28;20591;-66
2024/01/18 12:12:30;;;;;;;0.30;0.30;;;2.00;99.90;;;;;;4980606;28;20172;-66
2024/01/18 12:14:55;;;;;;;0.30;0.30;;;2.00;99.90;;;;;;4980130;28;20182;-66
2024/01/18 12:17:21;;;;;;;0.43;0.43;;;2.00;99.90;;;;;;4984405;28;20255;-66
2024/01/18 12:19:47;;;;;;;0.40;0.40;;;2.00;99.90;;;;;;4999983;28;20182;-65
2024/01/18 12:22:16;;;;;;;0.50;0.50;;;1.90;99.90;;;;;;5000124;28;20179;-67
2024/01/18 12:24:43;;;;;;;0.30;0.30;;;1.90;99.90;;;;;;4998359;28;20179;-64
2024/01/18 12:27:09;;;;;;;0.73;0.73;;;1.90;99.90;;;;;;4999541;28;20195;-67
2024/01/18 12:29:38;;;;;;;0.30;0.30;;;2.00;99.90;;;;;;4999701;28;20203;-66
2024/01/18 12:32:04;;;;;;;0.30;0.30;;;2.00;99.90;;;;;;4996024;28;20178;-68
2024/01/18 12:34:32;;;;;;;0.40;0.40;;;2.00;99.90;;;;;;4980122;28;20168;-65
2024/01/18 12:36:59;;;;;;;0.40;0.40;;;2.00;99.90;;;;;;4980053;28;20554;-66
2024/01/18 12:39:24;;;;;;;0.30;0.30;;;2.00;99.90;;;;;;4980011;28;20168;-64
2024/01/18 12:41:52;;;;;;;0.30;0.30;;;2.00;99.90;;;;;;4980512;28;20172;-67
2024/01/18 12:44:19;;;;;;;0.30;0.30;;;2.00;99.90;;;;;;4979967;28;20399;-64
2024/01/18 12:46:50;;;;;;;0.30;0.30;;;2.00;99.90;;;;;;4981971;28;20199;-68
2024/01/18 12:49:17;;;;;;;0.38;0.38;;;2.00;99.90;;;;;;4999698;28;20190;-64
2024/01/18 12:51:53;;;;;;;0.30;0.30;;;2.00;99.90;;;;;;4999517;28;20178;-65
2024/01/18 12:54:19;;;;;;;0.30;0.30;;;2.00;99.90;;;;;;4996563;28;20159;-64
2024/01/18 12:56:47;;;;;;;0.30;0.30;;;2.00;99.90;;;;;;4995133;28;20586;-65
2024/01/18 12:59:13;;;;;;;0.40;0.40;;;2.00;99.90;;;;;;4996451;28;20503;-64
2024/01/18 13:01:39;;;;;;;0.40;0.40;;;1.90;99.90;;;;;;4994855;28;20250;-63
2024/01/18 13:04:22;;;;;;;0.30;0.30;;;1.90;99.90;;;;;;4996539;28;20529;-66
2024/01/18 13:06:53;;;;;;;0.30;0.30;;;1.90;99.90;;;;;;4995967;28;20294;-67
2024/01/18 13:09:23;;;;;;;0.40;0.40;;;1.90;99.90;;;;;;4996609;28;20160;-67
2024/01/18 13:11:49;;;;;;;0.30;0.30;;;1.90;99.90;;;;;;4996223;28;20167;-67
2024/01/18 13:14:16;;;;;;;0.30;0.30;;;1.80;99.90;;;;;;4995999;28;20255;-64
2024/01/18 13:16:43;;;;;;;0.30;0.30;;;1.80;99.90;;;;;;4987893;28;20625;-66
2024/01/18 13:19:10;;;;;;;0.30;0.30;;;1.80;99.90;;;;;;4976618;28;20164;-67
2024/01/18 13:21:36;;;;;;;0.40;0.40;;;1.80;99.90;;;;;;4976699;28;20179;-64
2024/01/18 13:24:03;;;;;;;0.30;0.30;;;1.80;99.90;;;;;;4976598;28;20168;-67
2024/01/18 13:26:29;;;;;;;0.30;0.30;;;1.80;99.90;;;;;;4975953;28;20191;-66
2024/01/18 13:28:55;;;;;;;0.40;0.40;;;1.80;99.90;;;;;;4976576;28;20211;-67
2024/01/18 13:31:21;;;;;;;0.40;0.40;;;1.70;99.90;;;;;;4975128;28;20207;-65
2024/01/18 13:33:47;;;;;;;0.47;0.47;;;1.70;99.90;;;;;;4976670;28;20531;-66
2024/01/18 13:36:12;;;;;;;0.30;0.30;;;1.70;99.90;;;;;;4976084;28;20526;-66
2024/01/18 13:38:41;;;;;;;0.40;0.40;;;1.70;99.90;;;;;;4976570;28;20168;-68
2024/01/18 13:41:08;;;;;;;0.40;0.40;;;1.70;99.90;;;;;;4993947;28;20180;-64
2024/01/18 13:43:33;;;;;;;0.40;0.40;;;1.70;99.90;;;;;;4996018;28;20168;-66
2024/01/18 13:46:03;;;;;;;0.40;0.40;;;1.70;99.90;;;;;;4987644;28;20204;-65
2024/01/18 13:48:29;;;;;;;0.40;0.40;;;1.60;99.90;;;;;;4974580;28;20184;-67
2024/01/18 13:50:57;;;;;;;0.40;0.40;;;1.60;99.90;;;;;;4975082;28;20216;-67
2024/01/18 13:53:24;;;;;;;0.30;0.30;;;1.50;99.90;;;;;;4977075;28;20415;-64
2024/01/18 13:55:50;;;;;;;0.40;0.40;;;1.50;99.90;;;;;;4991254;28;20207;-65
2024/01/18 13:58:16;;;;;;;0.43;0.43;;;1.50;99.90;;;;;;4994586;28;20172;-66
2024/01/18 14:00:41;;;;;;;0.40;0.40;;;1.50;99.90;;;;;;4989620;28;20954;-66
2024/01/18 14:03:10;;;;;;;0.30;0.30;;;1.50;99.90;;;;;;4975585;28;20172;-64
2024/01/18 14:05:36;;;;;;;0.30;0.30;;;1.50;99.90;;;;;;4974502;28;20207;-65
2024/01/18 14:08:03;;;;;;;0.47;0.47;;;1.40;99.90;;;;;;4975609;28;20183;-66
2024/01/18 14:10:29;;;;;;;0.30;0.30;;;1.40;99.90;;;;;;4973436;28;20459;-65
2024/01/18 14:12:54;;;;;;;0.30;0.30;;;1.40;99.90;;;;;;4975703;28;20687;-64
2024/01/18 14:15:20;;;;;;;0.30;0.30;;;1.40;99.90;;;;;;4975281;28;20196;-68
2024/01/18 14:17:45;;;;;;;0.30;0.30;;;1.40;99.90;;;;;;4979513;28;20187;-65
2024/01/18 14:20:11;;;;;;;0.30;0.30;;;1.40;99.90;;;;;;4982599;28;20255;-64
2024/01/18 14:22:37;;;;;;;0.30;0.30;;;1.40;99.90;;;;;;4975589;28;20317;-65
2024/01/18 14:25:04;;;;;;;0.40;0.40;;;1.40;99.90;;;;;;4983512;28;20176;-65
2024/01/18 14:27:29;;;;;;;0.30;0.30;;;1.40;99.90;;;;;;4988099;28;20200;-63
2024/01/18 14:29:55;;;;;;;0.37;0.37;;;1.50;99.90;;;;;;4975579;28;20254;-63
2024/01/18 14:32:21;;;;;;;0.40;0.40;;;1.50;99.90;;;;;;4978081;28;20176;-64
2024/01/18 14:34:46;;;;;;;0.30;0.30;;;1.50;99.90;;;;;;4984497;28;20179;-63
2024/01/18 14:37:12;;;;;;;0.40;0.40;;;1.50;99.90;;;;;;4984151;28;20188;-66
2024/01/18 14:39:37;;;;;;;0.30;0.30;;;1.50;99.90;;;;;;4975417;28;20172;-66
2024/01/18 14:42:06;;;;;;;0.30;0.30;;;1.40;99.90;;;;;;4979103;28;20187;-64
2024/01/18 14:44:39;;;;;;;0.38;0.38;;;1.40;99.90;;;;;;4973187;28;20195;-65
2024/01/18 14:47:06;;;;;;;0.30;0.30;;;1.40;99.90;;;;;;4974122;28;20199;-65
2024/01/18 14:49:32;;;;;;;0.40;0.40;;;1.40;99.90;;;;;;4955939;29;20287;-64
2024/01/18 14:51:58;;;;;;;0.40;0.40;;;1.40;99.90;;;;;;4971985;28;20172;-60
2024/01/18 14:54:24;;;;;;;0.50;0.50;;;1.40;99.90;;;;;;4975710;28;20184;-63
2024/01/18 14:56:50;;;;;;;0.30;0.30;;;1.40;99.90;;;;;;4974828;28;20538;-66
2024/01/18 14:59:16;;;;;;;0.40;0.40;;;1.30;99.90;;;;;;4978368;28;20172;-62
2024/01/18 15:01:43;;;;;;;0.40;0.40;;;1.30;99.90;;;;;;4974453;28;20227;-60
2024/01/18 15:04:10;;;;;;;0.30;0.30;;;1.20;99.90;;;;;;4974657;28;20415;-63
2024/01/18 15:06:36;;;;;;;0.40;0.40;;;1.20;99.90;;;;;;4974582;28;20223;-64
2024/01/18 15:09:02;;;;;;;0.40;0.40;;;1.20;99.90;;;;;;4974705;28;20543;-65
2024/01/18 15:11:27;;;;;;;0.30;0.30;;;1.20;99.90;;;;;;4990559;28;20203;-63
2024/01/18 15:13:53;;;;;;;0.50;0.50;;;1.20;99.90;;;;;;4993290;28;20410;-65
2024/01/18 15:16:19;;;;;;;0.30;0.30;;;1.20;99.90;;;;;;4993134;28;20214;-64
2024/01/18 15:18:45;;;;;;;0.30;0.30;;;1.20;99.90;;;;;;4994105;28;20608;-62
2024/01/18 15:21:11;;;;;;;0.30;0.30;;;1.20;99.90;;;;;;4994118;28;20257;-63
2024/01/18 15:23:36;;;;;;;0.40;0.40;;;1.20;99.90;;;;;;4993629;28;20646;-62
2024/01/18 15:26:03;;;;;;;0.30;0.30;;;1.20;99.90;;;;;;4973290;28;20729;-63
2024/01/18 15:28:31;;;;;;;0.30;0.30;;;1.10;99.90;;;;;;4974032;28;20178;-62
2024/01/18 15:30:58;;;;;;;0.30;0.30;;;1.10;99.90;;;;;;4974060;28;20267;-63
2024/01/18 15:33:23;;;;;;;0.30;0.30;;;1.10;99.90;;;;;;4974418;28;20504;-61
2024/01/18 15:35:49;;;;;;;0.30;0.30;;;1.10;99.90;;;;;;4974097;28;20250;-63
2024/01/18 15:38:14;;;;;;;0.30;0.30;;;1.10;99.90;;;;;;4973807;28;20215;-61
2024/01/18 15:40:40;;;;;;;0.50;0.50;;;1.20;99.90;;;;;;4973332;28;20661;-59
2024/01/18 15:43:05;;;;;;;0.30;0.30;;;1.20;99.90;;;;;;4974183;28;20176;-60
2024/01/18 15:45:33;;;;;;;0.40;0.40;;;1.20;99.90;;;;;;4973976;28;20643;-60
2024/01/18 15:47:59;;;;;;;0.40;0.40;;;1.20;99.90;;;;;;4974008;28;20176;-63
2024/01/18 15:50:25;;;;;;;0.40;0.40;;;1.10;99.90;;;;;;4973815;28;20192;-63
2024/01/18 15:52:52;;;;;;;0.77;0.77;;;1.10;99.90;;;;;;4982104;28;20225;-61
2024/01/18 15:55:17;;;;;;;0.30;0.30;;;1.10;99.90;;;;;;4993294;28;20199;-64
2024/01/18 15:57:43;;;;;;;0.30;0.30;;;1.10;99.90;;;;;;4993890;28;20170;-62
2024/01/18 16:00:09;;;;;;;0.40;0.40;;;1.10;99.90;;;;;;4993911;28;20175;-62
2024/01/18 16:02:35;;;;;;;0.30;0.30;;;1.10;99.90;;;;;;4993833;28;20222;-62
2024/01/18 16:05:01;;;;;;;0.57;0.57;;;1.10;99.90;;;;;;4980092;28;20236;-62
2024/01/18 16:07:26;;;;;;;0.55;0.55;;;1.10;99.90;;;;;;4981055;28;20187;-62
2024/01/18 16:09:52;;;;;;;0.50;0.50;;;1.10;99.90;;;;;;4993353;28;20213;-64
2024/01/18 16:12:18;;;;;;;0.30;0.30;;;1.10;99.90;;;;;;4993921;28;20203;-61
2024/01/18 16:14:46;;;;;;;0.40;0.40;;;1.10;99.90;;;;;;4994002;28;20413;-60
2024/01/18 16:17:13;;;;;;;0.40;0.40;;;1.10;99.90;;;;;;4993703;28;20214;-63
2024/01/18 16:19:39;;;;;;;0.40;0.40;;;1.10;99.90;;;;;;4994048;28;20266;-65
2024/01/18 16:22:05;;;;;;;0.33;0.33;;;1.10;99.90;;;;;;4987465;28;20602;-63
2024/01/18 16:24:31;;;;;;;0.60;0.60;;;1.10;99.90;;;;;;4974063;28;20175;-61
2024/01/18 16:26:57;;;;;;;0.40;0.40;;;1.10;99.90;;;;;;4974686;28;20200;-61
2024/01/18 16:29:25;;;;;;;0.40;0.40;;;1.10;99.90;;;;;;4979260;28;20658;-64
2024/01/18 16:31:51;;;;;;;0.50;0.50;;;1.10;99.90;;;;;;4979567;28;20411;-64
2024/01/18 16:34:16;;;;;;;0.40;0.40;;;1.10;99.90;;;;;;4980675;28;20627;-63
2024/01/18 16:36:42;;;;;;;0.40;0.40;;;1.20;99.90;;;;;;4981131;28;20264;-63
2024/01/18 16:39:09;;;;;;;0.30;0.30;;;1.20;99.90;;;;;;4982546;28;20176;-60
2024/01/18 16:41:34;;;;;;;0.40;0.40;;;1.20;99.90;;;;;;4982051;28;20251;-62
2024/01/18 16:44:01;;;;;;;0.60;0.60;;;1.20;99.90;;;;;;4982791;28;20210;-62
2024/01/18 16:46:26;;;;;;;0.40;0.40;;;1.20;99.90;;;;;;4980264;28;20436;-62
2024/01/18 16:48:52;;;;;;;0.37;0.37;;;1.20;99.90;;;;;;4980083;28;20172;-62
2024/01/18 16:51:18;;;;;;;0.30;0.30;;;1.10;99.90;;;;;;4978593;28;20198;-62
2024/01/18 16:53:44;;;;;;;0.37;0.37;;;1.20;99.90;;;;;;4978714;28;20191;-62
2024/01/18 16:56:13;;;;;;;0.50;0.50;;;1.10;99.90;;;;;;4976842;28;20446;-63
2024/01/18 16:58:39;;;;;;;0.40;0.40;;;1.10;99.90;;;;;;4980248;28;20172;-62
2024/01/18 17:01:05;;;;;;;0.40;0.40;;;1.10;99.90;;;;;;4979799;28;20642;-62
2024/01/18 17:03:31;;;;;;;0.30;0.30;;;1.10;99.90;;;;;;4979137;28;20319;-64
2024/01/18 17:05:56;;;;;;;0.50;0.50;;;1.10;99.90;;;;;;4978745;28;20235;-63
2024/01/18 17:08:22;;;;;;;0.30;0.30;;;1.10;99.90;;;;;;4979414;28;20250;-63
2024/01/18 17:10:47;;;;;;;0.40;0.40;;;1.10;99.90;;;;;;4980285;28;20208;-63
2024/01/18 17:13:13;;;;;;;0.50;0.50;;;1.10;99.90;;;;;;4977376;28;20235;-68
2024/01/18 17:15:38;;;;;;;0.40;0.40;;;1.10;99.90;;;;;;4976695;28;20548;-64
2024/01/18 17:18:05;;;;;;;0.30;0.30;;;1.10;99.90;;;;;;4977303;28;20226;-64
2024/01/18 17:20:32;;;;;;;0.30;0.30;;;1.20;99.90;;;;;;4977214;28;20186;-67
2024/01/18 17:22:58;;;;;;;0.40;0.40;;;1.10;99.90;;;;;;4976629;28;20187;-63
2024/01/18 17:25:23;;;;;;;0.40;0.40;;;1.10;99.90;;;;;;4975876;28;20578;-64
2024/01/18 17:27:49;;;;;;;0.40;0.40;;;1.10;99.90;;;;;;4977177;28;20558;-64
2024/01/18 17:30:14;;;;;;;0.70;0.70;;;1.10;99.90;;;;;;4976689;28;20573;-63
2024/01/18 17:32:40;;;;;;;0.40;0.40;;;1.10;99.90;;;;;;4975911;28;20180;-69
2024/01/18 17:35:06;;;;;;;0.30;0.30;;;1.10;99.90;;;;;;4976466;28;20180;-66
2024/01/18 17:37:32;;;;;;;0.40;0.40;;;1.10;99.90;;;;;;4976393;28;20187;-64
2024/01/18 17:39:58;;;;;;;0.30;0.30;;;1.10;99.90;;;;;;4974645;28;20501;-64
2024/01/18 17:42:23;;;;;;;0.40;0.40;;;1.10;99.90;;;;;;4975983;28;20246;-68
2024/01/18 17:44:52;;;;;;;0.40;0.40;;;1.10;99.90;;;;;;4974647;28;20176;-65
2024/01/18 17:47:21;;;;;;;0.40;0.40;;;1.10;99.90;;;;;;4975729;28;20204;-63
2024/01/18 17:49:47;;;;;;;0.30;0.30;;;1.10;99.90;;;;;;4973003;28;20216;-65
2024/01/18 17:52:12;;;;;;;0.33;0.33;;;1.10;99.90;;;;;;4975907;28;20262;-65
2024/01/18 17:54:38;;;;;;;0.33;0.33;;;1.10;99.90;;;;;;4975478;28;20176;-65
2024/01/18 17:57:04;;;;;;;0.63;0.63;;;1.10;99.90;;;;;;4975577;28;20200;-64
2024/01/18 17:59:29;;;;;;;0.40;0.40;;;1.10;99.90;;;;;;4975312;28;20657;-63